sensor_id;sensor_type;location;lat;lon;timestamp;P1;durP1;ratioP1;P2;durP2;ratioP2
20348;SDS011;10332;50.208;18.988;2023-05-19T00:01:27;11.38;;;6.25;;
20348;SDS011;10332;50.208;18.988;2023-05-19T00:03:56;8.88;;;5.38;;
20348;SDS011;10332;50.208;18.988;2023-05-19T00:06:30;6.78;;;4.28;;
20348;SDS011;10332;50.208;18.988;2023-05-19T00:09:00;5.18;;;3.67;;
20348;SDS011;10332;50.208;18.988;2023-05-19T00:11:30;6.95;;;4.05;;
20348;SDS011;10332;50.208;18.988;2023-05-19T00:13:58;4.97;;;3.20;;
20348;SDS011;10332;50.208;18.988;2023-05-19T00:16:27;4.97;;;3.47;;
20348;SDS011;10332;50.208;18.988;2023-05-19T00:18:56;6.05;;;3.92;;
20348;SDS011;10332;50.208;18.988;2023-05-19T00:21:26;4.97;;;3.83;;
20348;SDS011;10332;50.208;18.988;2023-05-19T00:23:54;7.82;;;4.22;;
20348;SDS011;10332;50.208;18.988;2023-05-19T00:26:23;6.20;;;4.38;;
20348;SDS011;10332;50.208;18.988;2023-05-19T00:28:53;10.20;;;4.65;;
20348;SDS011;10332;50.208;18.988;2023-05-19T00:31:27;5.90;;;4.20;;
20348;SDS011;10332;50.208;18.988;2023-05-19T00:33:55;8.38;;;4.60;;
20348;SDS011;10332;50.208;18.988;2023-05-19T00:36:23;8.57;;;4.60;;
20348;SDS011;10332;50.208;18.988;2023-05-19T00:38:50;7.18;;;4.93;;
20348;SDS011;10332;50.208;18.988;2023-05-19T00:41:18;8.75;;;5.22;;
20348;SDS011;10332;50.208;18.988;2023-05-19T00:43:46;7.22;;;4.43;;
20348;SDS011;10332;50.208;18.988;2023-05-19T00:46:15;8.48;;;4.82;;
20348;SDS011;10332;50.208;18.988;2023-05-19T00:48:44;7.95;;;4.63;;
20348;SDS011;10332;50.208;18.988;2023-05-19T00:51:11;8.40;;;5.10;;
20348;SDS011;10332;50.208;18.988;2023-05-19T00:53:42;7.55;;;4.72;;
20348;SDS011;10332;50.208;18.988;2023-05-19T00:56:15;8.18;;;5.43;;
20348;SDS011;10332;50.208;18.988;2023-05-19T00:58:43;8.65;;;5.25;;
20348;SDS011;10332;50.208;18.988;2023-05-19T01:01:11;5.95;;;4.40;;
20348;SDS011;10332;50.208;18.988;2023-05-19T01:03:43;8.48;;;5.13;;
20348;SDS011;10332;50.208;18.988;2023-05-19T01:06:11;7.95;;;5.22;;
20348;SDS011;10332;50.208;18.988;2023-05-19T01:08:38;9.18;;;5.35;;
20348;SDS011;10332;50.208;18.988;2023-05-19T01:11:06;8.23;;;5.05;;
20348;SDS011;10332;50.208;18.988;2023-05-19T01:13:34;8.68;;;4.82;;
20348;SDS011;10332;50.208;18.988;2023-05-19T01:16:13;8.23;;;4.85;;
20348;SDS011;10332;50.208;18.988;2023-05-19T01:22:34;7.20;;;5.10;;
20348;SDS011;10332;50.208;18.988;2023-05-19T01:31:42;8.93;;;4.88;;
20348;SDS011;10332;50.208;18.988;2023-05-19T01:34:13;9.50;;;5.20;;
20348;SDS011;10332;50.208;18.988;2023-05-19T01:36:44;7.10;;;4.68;;
20348;SDS011;10332;50.208;18.988;2023-05-19T01:39:15;7.28;;;4.78;;
20348;SDS011;10332;50.208;18.988;2023-05-19T01:41:44;8.80;;;5.50;;
20348;SDS011;10332;50.208;18.988;2023-05-19T01:44:13;7.65;;;4.82;;
20348;SDS011;10332;50.208;18.988;2023-05-19T01:46:41;6.75;;;4.88;;
20348;SDS011;10332;50.208;18.988;2023-05-19T01:49:09;8.27;;;5.10;;
20348;SDS011;10332;50.208;18.988;2023-05-19T01:51:37;8.48;;;5.40;;
20348;SDS011;10332;50.208;18.988;2023-05-19T01:54:06;7.95;;;5.50;;
20348;SDS011;10332;50.208;18.988;2023-05-19T01:56:39;9.75;;;5.32;;
20348;SDS011;10332;50.208;18.988;2023-05-19T01:59:23;9.07;;;4.57;;
20348;SDS011;10332;50.208;18.988;2023-05-19T02:02:29;9.43;;;5.30;;
20348;SDS011;10332;50.208;18.988;2023-05-19T02:08:33;7.53;;;4.82;;
20348;SDS011;10332;50.208;18.988;2023-05-19T02:11:51;11.00;;;5.15;;
20348;SDS011;10332;50.208;18.988;2023-05-19T02:14:23;8.55;;;4.90;;
20348;SDS011;10332;50.208;18.988;2023-05-19T02:17:31;8.10;;;5.03;;
20348;SDS011;10332;50.208;18.988;2023-05-19T02:20:04;9.20;;;5.43;;
20348;SDS011;10332;50.208;18.988;2023-05-19T02:22:33;10.30;;;5.75;;
20348;SDS011;10332;50.208;18.988;2023-05-19T02:25:01;9.57;;;5.65;;
20348;SDS011;10332;50.208;18.988;2023-05-19T02:27:29;7.95;;;5.35;;
20348;SDS011;10332;50.208;18.988;2023-05-19T02:29:56;9.98;;;5.45;;
20348;SDS011;10332;50.208;18.988;2023-05-19T02:32:24;7.95;;;5.55;;
20348;SDS011;10332;50.208;18.988;2023-05-19T02:34:51;7.53;;;4.93;;
20348;SDS011;10332;50.208;18.988;2023-05-19T02:37:22;8.52;;;5.50;;
20348;SDS011;10332;50.208;18.988;2023-05-19T02:39:50;6.63;;;4.60;;
20348;SDS011;10332;50.208;18.988;2023-05-19T02:42:18;11.35;;;5.35;;
20348;SDS011;10332;50.208;18.988;2023-05-19T02:44:45;8.75;;;4.82;;
20348;SDS011;10332;50.208;18.988;2023-05-19T02:47:14;6.10;;;4.82;;
20348;SDS011;10332;50.208;18.988;2023-05-19T02:49:41;8.82;;;5.07;;
20348;SDS011;10332;50.208;18.988;2023-05-19T02:52:09;5.93;;;4.45;;
20348;SDS011;10332;50.208;18.988;2023-05-19T02:54:37;6.60;;;4.18;;
20348;SDS011;10332;50.208;18.988;2023-05-19T02:57:05;7.75;;;4.43;;
20348;SDS011;10332;50.208;18.988;2023-05-19T02:59:32;6.57;;;3.88;;
20348;SDS011;10332;50.208;18.988;2023-05-19T03:02:00;7.22;;;3.95;;
20348;SDS011;10332;50.208;18.988;2023-05-19T03:04:28;12.10;;;3.90;;
20348;SDS011;10332;50.208;18.988;2023-05-19T03:06:56;5.30;;;3.58;;
20348;SDS011;10332;50.208;18.988;2023-05-19T03:09:23;4.85;;;3.60;;
20348;SDS011;10332;50.208;18.988;2023-05-19T03:11:51;7.78;;;4.18;;
20348;SDS011;10332;50.208;18.988;2023-05-19T03:14:18;4.10;;;3.40;;
20348;SDS011;10332;50.208;18.988;2023-05-19T03:16:50;5.38;;;3.58;;
20348;SDS011;10332;50.208;18.988;2023-05-19T03:19:18;7.15;;;4.18;;
20348;SDS011;10332;50.208;18.988;2023-05-19T03:21:47;6.18;;;3.88;;
20348;SDS011;10332;50.208;18.988;2023-05-19T03:24:15;5.32;;;3.47;;
20348;SDS011;10332;50.208;18.988;2023-05-19T03:26:43;7.63;;;3.55;;
20348;SDS011;10332;50.208;18.988;2023-05-19T03:29:11;7.50;;;3.85;;
20348;SDS011;10332;50.208;18.988;2023-05-19T03:31:39;6.97;;;3.88;;
20348;SDS011;10332;50.208;18.988;2023-05-19T03:34:06;12.95;;;5.07;;
20348;SDS011;10332;50.208;18.988;2023-05-19T03:36:34;7.22;;;4.10;;
20348;SDS011;10332;50.208;18.988;2023-05-19T03:39:05;6.97;;;3.65;;
20348;SDS011;10332;50.208;18.988;2023-05-19T03:41:33;6.47;;;4.15;;
20348;SDS011;10332;50.208;18.988;2023-05-19T03:44:00;6.85;;;4.10;;
20348;SDS011;10332;50.208;18.988;2023-05-19T03:46:28;6.05;;;3.95;;
20348;SDS011;10332;50.208;18.988;2023-05-19T03:48:55;5.80;;;4.28;;
20348;SDS011;10332;50.208;18.988;2023-05-19T03:51:23;7.25;;;4.00;;
20348;SDS011;10332;50.208;18.988;2023-05-19T03:53:50;7.85;;;4.53;;
20348;SDS011;10332;50.208;18.988;2023-05-19T03:56:18;8.02;;;4.82;;
20348;SDS011;10332;50.208;18.988;2023-05-19T03:58:48;9.25;;;4.60;;
20348;SDS011;10332;50.208;18.988;2023-05-19T04:01:16;8.15;;;4.55;;
20348;SDS011;10332;50.208;18.988;2023-05-19T04:03:43;6.28;;;5.05;;
20348;SDS011;10332;50.208;18.988;2023-05-19T04:06:11;11.35;;;5.18;;
20348;SDS011;10332;50.208;18.988;2023-05-19T04:08:38;9.10;;;5.30;;
20348;SDS011;10332;50.208;18.988;2023-05-19T04:11:06;8.52;;;5.22;;
20348;SDS011;10332;50.208;18.988;2023-05-19T04:13:34;8.13;;;5.20;;
20348;SDS011;10332;50.208;18.988;2023-05-19T04:16:01;7.50;;;4.70;;
20348;SDS011;10332;50.208;18.988;2023-05-19T04:18:29;8.88;;;5.63;;
20348;SDS011;10332;50.208;18.988;2023-05-19T04:20:57;9.65;;;6.15;;
20348;SDS011;10332;50.208;18.988;2023-05-19T04:23:24;13.65;;;7.35;;
20348;SDS011;10332;50.208;18.988;2023-05-19T04:25:52;11.10;;;5.55;;
20348;SDS011;10332;50.208;18.988;2023-05-19T04:28:20;12.07;;;6.47;;
20348;SDS011;10332;50.208;18.988;2023-05-19T04:30:49;8.98;;;6.03;;
20348;SDS011;10332;50.208;18.988;2023-05-19T04:33:17;8.77;;;5.32;;
20348;SDS011;10332;50.208;18.988;2023-05-19T04:35:45;10.50;;;6.63;;
20348;SDS011;10332;50.208;18.988;2023-05-19T04:38:13;10.05;;;6.70;;
20348;SDS011;10332;50.208;18.988;2023-05-19T04:40:44;10.35;;;5.82;;
20348;SDS011;10332;50.208;18.988;2023-05-19T04:43:15;8.70;;;5.80;;
20348;SDS011;10332;50.208;18.988;2023-05-19T04:45:45;10.52;;;6.57;;
20348;SDS011;10332;50.208;18.988;2023-05-19T04:48:15;8.90;;;6.22;;
20348;SDS011;10332;50.208;18.988;2023-05-19T04:50:43;11.38;;;6.60;;
20348;SDS011;10332;50.208;18.988;2023-05-19T04:53:10;9.93;;;6.63;;
20348;SDS011;10332;50.208;18.988;2023-05-19T04:55:38;9.57;;;6.50;;
20348;SDS011;10332;50.208;18.988;2023-05-19T04:58:05;11.50;;;7.03;;
20348;SDS011;10332;50.208;18.988;2023-05-19T05:00:33;11.05;;;6.53;;
20348;SDS011;10332;50.208;18.988;2023-05-19T05:03:02;10.27;;;7.35;;
20348;SDS011;10332;50.208;18.988;2023-05-19T05:05:33;10.70;;;7.15;;
20348;SDS011;10332;50.208;18.988;2023-05-19T05:08:01;11.27;;;7.05;;
20348;SDS011;10332;50.208;18.988;2023-05-19T05:10:29;9.80;;;6.53;;
20348;SDS011;10332;50.208;18.988;2023-05-19T05:12:57;9.15;;;6.45;;
20348;SDS011;10332;50.208;18.988;2023-05-19T05:15:26;10.38;;;6.68;;
20348;SDS011;10332;50.208;18.988;2023-05-19T05:17:55;11.13;;;7.13;;
20348;SDS011;10332;50.208;18.988;2023-05-19T05:20:24;11.07;;;6.80;;
20348;SDS011;10332;50.208;18.988;2023-05-19T05:22:52;9.45;;;6.05;;
20348;SDS011;10332;50.208;18.988;2023-05-19T05:25:20;11.35;;;7.93;;
20348;SDS011;10332;50.208;18.988;2023-05-19T05:27:48;13.15;;;7.85;;
20348;SDS011;10332;50.208;18.988;2023-05-19T05:30:15;8.57;;;6.43;;
20348;SDS011;10332;50.208;18.988;2023-05-19T05:32:43;10.48;;;6.43;;
20348;SDS011;10332;50.208;18.988;2023-05-19T05:35:11;14.05;;;6.38;;
20348;SDS011;10332;50.208;18.988;2023-05-19T05:37:38;12.32;;;7.43;;
20348;SDS011;10332;50.208;18.988;2023-05-19T05:40:06;9.82;;;7.47;;
20348;SDS011;10332;50.208;18.988;2023-05-19T05:42:34;12.48;;;6.43;;
20348;SDS011;10332;50.208;18.988;2023-05-19T05:45:02;14.15;;;7.68;;
20348;SDS011;10332;50.208;18.988;2023-05-19T05:47:30;10.82;;;6.60;;
20348;SDS011;10332;50.208;18.988;2023-05-19T05:49:58;12.75;;;7.03;;
20348;SDS011;10332;50.208;18.988;2023-05-19T05:52:27;13.10;;;7.68;;
20348;SDS011;10332;50.208;18.988;2023-05-19T05:54:58;17.88;;;10.75;;
20348;SDS011;10332;50.208;18.988;2023-05-19T05:57:25;12.77;;;7.30;;
20348;SDS011;10332;50.208;18.988;2023-05-19T05:59:56;12.70;;;6.60;;
20348;SDS011;10332;50.208;18.988;2023-05-19T06:02:23;10.65;;;6.78;;
20348;SDS011;10332;50.208;18.988;2023-05-19T06:04:52;10.65;;;7.63;;
20348;SDS011;10332;50.208;18.988;2023-05-19T06:07:19;12.27;;;6.80;;
20348;SDS011;10332;50.208;18.988;2023-05-19T06:09:47;10.32;;;6.63;;
20348;SDS011;10332;50.208;18.988;2023-05-19T06:12:14;10.63;;;7.05;;
20348;SDS011;10332;50.208;18.988;2023-05-19T06:14:42;11.00;;;6.93;;
20348;SDS011;10332;50.208;18.988;2023-05-19T06:17:09;12.57;;;7.57;;
20348;SDS011;10332;50.208;18.988;2023-05-19T06:19:37;10.70;;;6.30;;
20348;SDS011;10332;50.208;18.988;2023-05-19T06:22:04;12.63;;;7.32;;
20348;SDS011;10332;50.208;18.988;2023-05-19T06:24:32;10.27;;;6.78;;
20348;SDS011;10332;50.208;18.988;2023-05-19T06:26:59;9.98;;;6.53;;
20348;SDS011;10332;50.208;18.988;2023-05-19T06:29:27;12.13;;;6.70;;
20348;SDS011;10332;50.208;18.988;2023-05-19T06:31:54;8.98;;;5.78;;
20348;SDS011;10332;50.208;18.988;2023-05-19T06:34:22;10.85;;;6.97;;
20348;SDS011;10332;50.208;18.988;2023-05-19T06:36:50;10.30;;;7.03;;
20348;SDS011;10332;50.208;18.988;2023-05-19T06:39:17;10.40;;;7.40;;
20348;SDS011;10332;50.208;18.988;2023-05-19T06:41:45;12.50;;;7.25;;
20348;SDS011;10332;50.208;18.988;2023-05-19T06:44:12;12.70;;;7.63;;
20348;SDS011;10332;50.208;18.988;2023-05-19T06:46:40;14.15;;;7.68;;
20348;SDS011;10332;50.208;18.988;2023-05-19T06:49:09;12.77;;;9.38;;
20348;SDS011;10332;50.208;18.988;2023-05-19T06:51:36;8.73;;;6.88;;
20348;SDS011;10332;50.208;18.988;2023-05-19T06:54:04;14.20;;;7.53;;
20348;SDS011;10332;50.208;18.988;2023-05-19T06:56:31;10.05;;;6.90;;
20348;SDS011;10332;50.208;18.988;2023-05-19T06:58:59;9.35;;;6.78;;
20348;SDS011;10332;50.208;18.988;2023-05-19T07:01:26;11.80;;;7.03;;
20348;SDS011;10332;50.208;18.988;2023-05-19T07:03:56;10.00;;;6.97;;
20348;SDS011;10332;50.208;18.988;2023-05-19T07:06:23;11.55;;;6.75;;
20348;SDS011;10332;50.208;18.988;2023-05-19T07:08:51;9.50;;;6.63;;
20348;SDS011;10332;50.208;18.988;2023-05-19T07:11:18;9.27;;;7.05;;
20348;SDS011;10332;50.208;18.988;2023-05-19T07:13:47;11.65;;;7.57;;
20348;SDS011;10332;50.208;18.988;2023-05-19T07:16:14;12.25;;;7.47;;
20348;SDS011;10332;50.208;18.988;2023-05-19T07:18:42;11.70;;;7.65;;
20348;SDS011;10332;50.208;18.988;2023-05-19T07:21:10;11.65;;;7.13;;
20348;SDS011;10332;50.208;18.988;2023-05-19T07:23:37;9.40;;;7.13;;
20348;SDS011;10332;50.208;18.988;2023-05-19T07:26:05;17.35;;;11.05;;
20348;SDS011;10332;50.208;18.988;2023-05-19T07:28:32;19.20;;;13.35;;
20348;SDS011;10332;50.208;18.988;2023-05-19T07:31:00;29.35;;;17.67;;
20348;SDS011;10332;50.208;18.988;2023-05-19T07:33:28;11.52;;;7.55;;
20348;SDS011;10332;50.208;18.988;2023-05-19T07:35:55;11.55;;;7.65;;
20348;SDS011;10332;50.208;18.988;2023-05-19T07:38:23;10.05;;;7.30;;
20348;SDS011;10332;50.208;18.988;2023-05-19T07:40:50;8.75;;;6.80;;
20348;SDS011;10332;50.208;18.988;2023-05-19T07:43:18;10.50;;;7.47;;
20348;SDS011;10332;50.208;18.988;2023-05-19T07:45:45;10.68;;;6.82;;
20348;SDS011;10332;50.208;18.988;2023-05-19T07:48:13;10.63;;;7.45;;
20348;SDS011;10332;50.208;18.988;2023-05-19T07:50:41;13.00;;;8.32;;
20348;SDS011;10332;50.208;18.988;2023-05-19T07:53:08;11.20;;;8.32;;
20348;SDS011;10332;50.208;18.988;2023-05-19T07:55:36;12.27;;;8.05;;
20348;SDS011;10332;50.208;18.988;2023-05-19T07:58:03;9.43;;;7.05;;
20348;SDS011;10332;50.208;18.988;2023-05-19T08:00:31;13.95;;;8.10;;
20348;SDS011;10332;50.208;18.988;2023-05-19T08:02:59;12.95;;;7.90;;
20348;SDS011;10332;50.208;18.988;2023-05-19T08:05:27;10.50;;;7.22;;
20348;SDS011;10332;50.208;18.988;2023-05-19T08:07:55;13.50;;;8.50;;
20348;SDS011;10332;50.208;18.988;2023-05-19T08:10:23;10.68;;;7.50;;
20348;SDS011;10332;50.208;18.988;2023-05-19T08:12:50;14.18;;;8.98;;
20348;SDS011;10332;50.208;18.988;2023-05-19T08:15:18;16.98;;;10.77;;
20348;SDS011;10332;50.208;18.988;2023-05-19T08:17:46;26.63;;;16.90;;
20348;SDS011;10332;50.208;18.988;2023-05-19T08:20:14;15.35;;;10.07;;
20348;SDS011;10332;50.208;18.988;2023-05-19T08:22:41;16.08;;;10.02;;
20348;SDS011;10332;50.208;18.988;2023-05-19T08:25:09;14.35;;;8.70;;
20348;SDS011;10332;50.208;18.988;2023-05-19T08:27:37;10.45;;;8.05;;
20348;SDS011;10332;50.208;18.988;2023-05-19T08:30:05;12.02;;;8.25;;
20348;SDS011;10332;50.208;18.988;2023-05-19T08:32:33;14.13;;;8.05;;
20348;SDS011;10332;50.208;18.988;2023-05-19T08:35:01;12.02;;;8.82;;
20348;SDS011;10332;50.208;18.988;2023-05-19T08:37:30;11.38;;;7.63;;
20348;SDS011;10332;50.208;18.988;2023-05-19T08:39:59;9.30;;;7.22;;
20348;SDS011;10332;50.208;18.988;2023-05-19T08:42:27;13.32;;;7.78;;
20348;SDS011;10332;50.208;18.988;2023-05-19T08:44:54;14.48;;;8.60;;
20348;SDS011;10332;50.208;18.988;2023-05-19T08:47:22;12.70;;;7.90;;
20348;SDS011;10332;50.208;18.988;2023-05-19T08:49:51;14.10;;;9.45;;
20348;SDS011;10332;50.208;18.988;2023-05-19T08:52:50;11.88;;;7.78;;
20348;SDS011;10332;50.208;18.988;2023-05-19T08:55:31;13.05;;;8.98;;
20348;SDS011;10332;50.208;18.988;2023-05-19T08:58:07;11.93;;;8.68;;
20348;SDS011;10332;50.208;18.988;2023-05-19T09:00:36;10.38;;;7.75;;
20348;SDS011;10332;50.208;18.988;2023-05-19T09:03:04;11.07;;;7.93;;
20348;SDS011;10332;50.208;18.988;2023-05-19T09:05:37;14.85;;;9.02;;
20348;SDS011;10332;50.208;18.988;2023-05-19T09:08:05;25.98;;;17.63;;
20348;SDS011;10332;50.208;18.988;2023-05-19T09:10:33;16.40;;;11.98;;
20348;SDS011;10332;50.208;18.988;2023-05-19T09:13:00;14.93;;;10.02;;
20348;SDS011;10332;50.208;18.988;2023-05-19T09:15:28;12.27;;;8.48;;
20348;SDS011;10332;50.208;18.988;2023-05-19T09:18:17;12.93;;;9.00;;
20348;SDS011;10332;50.208;18.988;2023-05-19T09:20:44;11.35;;;8.07;;
20348;SDS011;10332;50.208;18.988;2023-05-19T09:23:14;12.85;;;9.02;;
20348;SDS011;10332;50.208;18.988;2023-05-19T09:28:22;12.88;;;9.20;;
20348;SDS011;10332;50.208;18.988;2023-05-19T09:33:28;12.98;;;8.00;;
20348;SDS011;10332;50.208;18.988;2023-05-19T09:35:57;8.88;;;7.30;;
20348;SDS011;10332;50.208;18.988;2023-05-19T09:38:25;9.88;;;7.40;;
20348;SDS011;10332;50.208;18.988;2023-05-19T09:40:57;11.68;;;7.82;;
20348;SDS011;10332;50.208;18.988;2023-05-19T09:43:26;10.55;;;8.43;;
20348;SDS011;10332;50.208;18.988;2023-05-19T09:46:05;16.13;;;8.73;;
20348;SDS011;10332;50.208;18.988;2023-05-19T09:48:37;24.55;;;16.75;;
20348;SDS011;10332;50.208;18.988;2023-05-19T09:51:07;35.13;;;23.30;;
20348;SDS011;10332;50.208;18.988;2023-05-19T09:53:37;13.90;;;9.00;;
20348;SDS011;10332;50.208;18.988;2023-05-19T09:56:05;43.05;;;30.90;;
20348;SDS011;10332;50.208;18.988;2023-05-19T09:58:36;19.40;;;14.40;;
20348;SDS011;10332;50.208;18.988;2023-05-19T10:01:07;14.20;;;10.52;;
20348;SDS011;10332;50.208;18.988;2023-05-19T10:03:35;14.27;;;8.68;;
20348;SDS011;10332;50.208;18.988;2023-05-19T10:06:04;12.48;;;8.07;;
20348;SDS011;10332;50.208;18.988;2023-05-19T10:08:35;12.73;;;8.25;;
20348;SDS011;10332;50.208;18.988;2023-05-19T10:11:05;11.75;;;7.68;;
20348;SDS011;10332;50.208;18.988;2023-05-19T10:13:34;10.07;;;6.88;;
20348;SDS011;10332;50.208;18.988;2023-05-19T10:16:05;10.63;;;7.28;;
20348;SDS011;10332;50.208;18.988;2023-05-19T10:18:35;8.85;;;6.72;;
20348;SDS011;10332;50.208;18.988;2023-05-19T10:21:06;9.45;;;7.20;;
20348;SDS011;10332;50.208;18.988;2023-05-19T10:23:35;10.43;;;7.25;;
20348;SDS011;10332;50.208;18.988;2023-05-19T10:26:03;9.80;;;6.70;;
20348;SDS011;10332;50.208;18.988;2023-05-19T10:28:37;11.13;;;7.05;;
20348;SDS011;10332;50.208;18.988;2023-05-19T10:31:09;10.55;;;6.70;;
20348;SDS011;10332;50.208;18.988;2023-05-19T10:36:48;11.38;;;6.38;;
20348;SDS011;10332;50.208;18.988;2023-05-19T10:39:47;16.80;;;12.52;;
20348;SDS011;10332;50.208;18.988;2023-05-19T10:42:22;19.67;;;13.68;;
20348;SDS011;10332;50.208;18.988;2023-05-19T10:45:08;13.82;;;9.70;;
20348;SDS011;10332;50.208;18.988;2023-05-19T10:47:49;7.43;;;5.75;;
20348;SDS011;10332;50.208;18.988;2023-05-19T10:50:17;7.90;;;6.60;;
20348;SDS011;10332;50.208;18.988;2023-05-19T10:52:51;10.38;;;7.15;;
20348;SDS011;10332;50.208;18.988;2023-05-19T10:58:13;19.35;;;8.70;;
20348;SDS011;10332;50.208;18.988;2023-05-19T11:00:41;22.70;;;10.35;;
20348;SDS011;10332;50.208;18.988;2023-05-19T11:03:13;13.82;;;7.93;;
20348;SDS011;10332;50.208;18.988;2023-05-19T11:05:43;13.57;;;8.13;;
20348;SDS011;10332;50.208;18.988;2023-05-19T11:08:12;10.98;;;7.20;;
20348;SDS011;10332;50.208;18.988;2023-05-19T11:10:42;10.70;;;7.13;;
20348;SDS011;10332;50.208;18.988;2023-05-19T11:13:20;11.38;;;7.68;;
20348;SDS011;10332;50.208;18.988;2023-05-19T11:15:54;16.30;;;11.73;;
20348;SDS011;10332;50.208;18.988;2023-05-19T11:18:22;15.40;;;9.75;;
20348;SDS011;10332;50.208;18.988;2023-05-19T11:20:54;7.97;;;6.63;;
20348;SDS011;10332;50.208;18.988;2023-05-19T11:23:29;10.80;;;7.40;;
20348;SDS011;10332;50.208;18.988;2023-05-19T11:26:01;9.20;;;7.22;;
20348;SDS011;10332;50.208;18.988;2023-05-19T11:28:28;9.95;;;7.70;;
20348;SDS011;10332;50.208;18.988;2023-05-19T11:30:57;11.43;;;7.90;;
20348;SDS011;10332;50.208;18.988;2023-05-19T11:33:28;11.77;;;7.25;;
20348;SDS011;10332;50.208;18.988;2023-05-19T11:35:58;10.77;;;6.95;;
20348;SDS011;10332;50.208;18.988;2023-05-19T11:38:26;9.23;;;6.47;;
20348;SDS011;10332;50.208;18.988;2023-05-19T11:40:56;9.65;;;7.30;;
20348;SDS011;10332;50.208;18.988;2023-05-19T11:43:24;11.35;;;7.78;;
20348;SDS011;10332;50.208;18.988;2023-05-19T11:45:52;9.20;;;6.93;;
20348;SDS011;10332;50.208;18.988;2023-05-19T11:48:20;8.38;;;6.90;;
20348;SDS011;10332;50.208;18.988;2023-05-19T11:50:49;10.10;;;7.25;;
20348;SDS011;10332;50.208;18.988;2023-05-19T11:53:16;9.02;;;6.95;;
20348;SDS011;10332;50.208;18.988;2023-05-19T11:55:45;10.25;;;6.93;;
20348;SDS011;10332;50.208;18.988;2023-05-19T11:58:14;7.65;;;5.85;;
20348;SDS011;10332;50.208;18.988;2023-05-19T12:00:43;8.63;;;7.05;;
20348;SDS011;10332;50.208;18.988;2023-05-19T12:03:14;8.52;;;6.40;;
20348;SDS011;10332;50.208;18.988;2023-05-19T12:05:47;10.48;;;7.97;;
20348;SDS011;10332;50.208;18.988;2023-05-19T12:08:16;15.60;;;11.80;;
20348;SDS011;10332;50.208;18.988;2023-05-19T12:10:47;19.45;;;14.82;;
20348;SDS011;10332;50.208;18.988;2023-05-19T12:13:16;10.57;;;8.18;;
20348;SDS011;10332;50.208;18.988;2023-05-19T12:15:45;10.95;;;7.25;;
20348;SDS011;10332;50.208;18.988;2023-05-19T12:18:12;10.30;;;8.52;;
20348;SDS011;10332;50.208;18.988;2023-05-19T12:20:40;12.32;;;8.82;;
20348;SDS011;10332;50.208;18.988;2023-05-19T12:23:08;9.57;;;8.00;;
20348;SDS011;10332;50.208;18.988;2023-05-19T12:25:36;8.55;;;7.50;;
20348;SDS011;10332;50.208;18.988;2023-05-19T12:28:04;8.82;;;7.47;;
20348;SDS011;10332;50.208;18.988;2023-05-19T12:30:33;8.18;;;7.05;;
20348;SDS011;10332;50.208;18.988;2023-05-19T12:33:01;10.63;;;7.80;;
20348;SDS011;10332;50.208;18.988;2023-05-19T12:35:29;8.13;;;7.13;;
20348;SDS011;10332;50.208;18.988;2023-05-19T12:38:03;12.98;;;8.27;;
20348;SDS011;10332;50.208;18.988;2023-05-19T12:40:33;10.93;;;7.70;;
20348;SDS011;10332;50.208;18.988;2023-05-19T12:43:03;14.70;;;9.52;;
20348;SDS011;10332;50.208;18.988;2023-05-19T12:45:35;12.75;;;9.70;;
20348;SDS011;10332;50.208;18.988;2023-05-19T12:48:09;16.00;;;12.15;;
20348;SDS011;10332;50.208;18.988;2023-05-19T12:50:38;11.50;;;10.23;;
20348;SDS011;10332;50.208;18.988;2023-05-19T12:53:12;14.90;;;12.27;;
20348;SDS011;10332;50.208;18.988;2023-05-19T12:55:41;28.48;;;22.48;;
20348;SDS011;10332;50.208;18.988;2023-05-19T12:58:11;13.55;;;9.93;;
20348;SDS011;10332;50.208;18.988;2023-05-19T13:00:42;13.23;;;11.45;;
20348;SDS011;10332;50.208;18.988;2023-05-19T13:03:14;13.75;;;11.18;;
20348;SDS011;10332;50.208;18.988;2023-05-19T13:05:46;8.07;;;6.50;;
20348;SDS011;10332;50.208;18.988;2023-05-19T13:08:20;7.50;;;6.22;;
20348;SDS011;10332;50.208;18.988;2023-05-19T13:10:50;7.97;;;6.07;;
20348;SDS011;10332;50.208;18.988;2023-05-19T13:13:17;8.15;;;7.25;;
20348;SDS011;10332;50.208;18.988;2023-05-19T13:15:45;7.93;;;6.70;;
20348;SDS011;10332;50.208;18.988;2023-05-19T13:18:15;11.00;;;6.95;;
20348;SDS011;10332;50.208;18.988;2023-05-19T13:20:44;8.75;;;6.72;;
20348;SDS011;10332;50.208;18.988;2023-05-19T13:23:13;7.38;;;6.50;;
20348;SDS011;10332;50.208;18.988;2023-05-19T13:25:41;10.27;;;6.97;;
20348;SDS011;10332;50.208;18.988;2023-05-19T13:28:09;9.63;;;7.07;;
20348;SDS011;10332;50.208;18.988;2023-05-19T13:30:37;12.05;;;7.20;;
20348;SDS011;10332;50.208;18.988;2023-05-19T13:33:06;12.25;;;10.40;;
20348;SDS011;10332;50.208;18.988;2023-05-19T13:35:34;11.15;;;8.35;;
20348;SDS011;10332;50.208;18.988;2023-05-19T13:38:04;10.88;;;7.78;;
20348;SDS011;10332;50.208;18.988;2023-05-19T13:40:33;9.25;;;7.13;;
20348;SDS011;10332;50.208;18.988;2023-05-19T13:43:02;7.60;;;6.80;;
20348;SDS011;10332;50.208;18.988;2023-05-19T13:45:30;8.13;;;7.07;;
20348;SDS011;10332;50.208;18.988;2023-05-19T13:47:58;7.57;;;6.47;;
20348;SDS011;10332;50.208;18.988;2023-05-19T13:50:26;8.00;;;6.47;;
20348;SDS011;10332;50.208;18.988;2023-05-19T13:52:53;10.05;;;7.68;;
20348;SDS011;10332;50.208;18.988;2023-05-19T13:55:21;8.73;;;6.95;;
20348;SDS011;10332;50.208;18.988;2023-05-19T13:57:49;8.13;;;7.30;;
20348;SDS011;10332;50.208;18.988;2023-05-19T14:00:17;8.95;;;7.18;;
20348;SDS011;10332;50.208;18.988;2023-05-19T14:02:44;8.57;;;7.68;;
20348;SDS011;10332;50.208;18.988;2023-05-19T14:05:13;9.57;;;7.50;;
20348;SDS011;10332;50.208;18.988;2023-05-19T14:07:40;8.98;;;7.43;;
20348;SDS011;10332;50.208;18.988;2023-05-19T14:10:08;9.57;;;7.70;;
20348;SDS011;10332;50.208;18.988;2023-05-19T14:12:36;11.65;;;8.98;;
20348;SDS011;10332;50.208;18.988;2023-05-19T14:15:24;15.23;;;11.60;;
20348;SDS011;10332;50.208;18.988;2023-05-19T14:17:52;18.48;;;14.85;;
20348;SDS011;10332;50.208;18.988;2023-05-19T14:20:20;18.60;;;15.02;;
20348;SDS011;10332;50.208;18.988;2023-05-19T14:22:47;10.38;;;8.23;;
20348;SDS011;10332;50.208;18.988;2023-05-19T14:25:15;9.52;;;8.52;;
20348;SDS011;10332;50.208;18.988;2023-05-19T14:27:42;8.90;;;8.00;;
20348;SDS011;10332;50.208;18.988;2023-05-19T14:30:10;12.60;;;9.85;;
20348;SDS011;10332;50.208;18.988;2023-05-19T14:32:38;11.32;;;9.55;;
20348;SDS011;10332;50.208;18.988;2023-05-19T14:35:06;11.65;;;9.40;;
20348;SDS011;10332;50.208;18.988;2023-05-19T14:37:33;10.32;;;9.20;;
20348;SDS011;10332;50.208;18.988;2023-05-19T14:40:01;11.98;;;10.40;;
20348;SDS011;10332;50.208;18.988;2023-05-19T14:42:30;12.60;;;9.45;;
20348;SDS011;10332;50.208;18.988;2023-05-19T14:44:57;11.50;;;9.85;;
20348;SDS011;10332;50.208;18.988;2023-05-19T14:47:24;14.02;;;11.23;;
20348;SDS011;10332;50.208;18.988;2023-05-19T14:49:53;16.05;;;14.35;;
20348;SDS011;10332;50.208;18.988;2023-05-19T14:52:20;15.07;;;13.23;;
20348;SDS011;10332;50.208;18.988;2023-05-19T14:54:48;12.70;;;11.40;;
20348;SDS011;10332;50.208;18.988;2023-05-19T14:57:16;11.60;;;10.07;;
20348;SDS011;10332;50.208;18.988;2023-05-19T14:59:43;12.45;;;10.52;;
20348;SDS011;10332;50.208;18.988;2023-05-19T15:02:10;11.63;;;10.40;;
20348;SDS011;10332;50.208;18.988;2023-05-19T15:04:38;11.52;;;10.32;;